FMMI Airport Information

Runway Information
Runway 11 Length 10171 ft width 148 ft
Elevation 4197 ft Threshold 0 ft Heading 99
Runway 29 Length 10171 ft Width 148 ft
Elevation 4117 ft Threshold 0 ft Heading 279
Airport Frequencies
Type TWR Name TWR Frequency 120.1 MHZ
Airport Navaids
Type VOR-DME Name Ivato Frequency 114500 KHZ
Airport Weather Information & NOTAM
ADDS - METARS form results

(0857 UTC 20 July 2018)
 
METAR text: FMMI 200830Z 14011KT 100V180 9999 SCT018 BKN024 BKN050 16/10 Q1027 NOSIG
Conditions at: FMMI (ANTANANARIVO/IVA, KM) observed 0830 UTC 20 July 2018
Temperature: 16.0°C (61°F)
Dewpoint: 10.0°C (50°F) [RH = 68%]
Pressure (altimeter): 30.32 inches Hg (1027.0 mb)
Winds: from the SE (140 degrees) at 13 MPH (11 knots; 5.7 m/s)
Visibility: 6 or more miles (10+ km)
Ceiling: 2400 feet AGL
Clouds: scattered clouds at 1800 feet AGL
broken clouds at 2400 feet AGL
broken clouds at 5000 feet AGL
Weather: no significant weather observed at this time

METAR text: FMMI 200800Z 14012KT 110V180 9999 -DZ BKN017 SCT020 15/10 Q1027 NOSIG
Conditions at: FMMI (ANTANANARIVO/IVA, KM) observed 0800 UTC 20 July 2018
Temperature: 15.0°C (59°F)
Dewpoint: 10.0°C (50°F) [RH = 72%]
Pressure (altimeter): 30.32 inches Hg (1027.0 mb)
Winds: from the SE (140 degrees) at 14 MPH (12 knots; 6.2 m/s)
Visibility: 6 or more miles (10+ km)
Ceiling: 1700 feet AGL
Clouds: broken clouds at 1700 feet AGL
scattered clouds at 2000 feet AGL
Weather: -DZ  (light drizzle)